Terminal Aerodrome Forecast
Issued by NWS Shreveport, LA

Home | Current Version | Previous Version | Text Only | Print | Product List | Glossary On
Versions: 1 2 3 4 5 6 7 8 9 10 11 12 13 14 15 16 17 18 19
217
FTUS44 KSHV 221732
TAFTXK
TAF
KTXK 221732Z 2218/2318 29011KT P6SM BKN015
     FM230900 28007KT P6SM OVC007
     FM231500 31010KT P6SM BKN015=

USA.gov is the U.S. government's official web portal to all federal, state and local government web resources and services.